Time;durP1;ratioP1;P1;durP2;ratioP2;P2;SDS_P1;SDS_P2;PMS_P1;PMS_P2;Temp;Humidity;BMP_temperature;BMP_pressure;BME280_temperature;BME280_humidity;BME280_pressure;Samples;Min_cycle;Max_cycle;Signal;HPM_P1;HPM_P2
2023/07/24 00:00:13;;;;;;;1.45;0.60;;;19.00;99.90;;;;;;4868866;29;20410;-74
2023/07/24 00:02:40;;;;;;;1.17;0.50;;;18.90;99.90;;;;;;4864200;29;20480;-74
2023/07/24 00:05:08;;;;;;;1.10;0.60;;;18.90;99.90;;;;;;4850878;29;20032;-76
2023/07/24 00:07:35;;;;;;;1.00;0.50;;;18.90;99.90;;;;;;4864863;29;20053;-74
2023/07/24 00:10:02;;;;;;;1.20;0.60;;;18.90;99.90;;;;;;4849897;29;20439;-76
2023/07/24 00:12:28;;;;;;;0.80;0.50;;;18.90;99.90;;;;;;4878669;29;20043;-74
2023/07/24 00:14:54;;;;;;;1.65;0.70;;;18.90;99.90;;;;;;4862917;29;20500;-75
2023/07/24 00:17:21;;;;;;;1.10;0.52;;;18.90;99.90;;;;;;4861974;29;20037;-75
2023/07/24 00:19:49;;;;;;;1.55;0.57;;;18.90;99.90;;;;;;4876888;29;20047;-74
2023/07/24 00:22:15;;;;;;;1.10;0.70;;;18.90;99.90;;;;;;4865123;29;20040;-74
2023/07/24 00:24:42;;;;;;;1.83;0.60;;;18.90;99.90;;;;;;4883175;29;20037;-75
2023/07/24 00:27:09;;;;;;;1.25;0.70;;;18.80;99.90;;;;;;4878988;29;20048;-75
2023/07/24 00:29:36;;;;;;;1.10;0.70;;;18.90;99.90;;;;;;4863385;29;20041;-74
2023/07/24 00:32:02;;;;;;;1.60;0.70;;;18.90;99.90;;;;;;4879945;29;20527;-75
2023/07/24 00:34:29;;;;;;;1.00;0.60;;;18.80;99.90;;;;;;4885350;29;20450;-75
2023/07/24 00:36:55;;;;;;;1.17;0.77;;;18.80;99.90;;;;;;4865483;29;20048;-75
2023/07/24 00:39:24;;;;;;;1.40;0.60;;;18.80;99.90;;;;;;4850289;29;20077;-76
2023/07/24 00:41:50;;;;;;;1.45;0.95;;;18.80;99.90;;;;;;4866706;29;20040;-76
2023/07/24 00:44:18;;;;;;;1.23;0.60;;;18.80;99.90;;;;;;4887158;29;20607;-75
2023/07/24 00:46:45;;;;;;;1.23;0.77;;;18.80;99.90;;;;;;4883415;29;20056;-75
2023/07/24 00:49:12;;;;;;;1.23;0.63;;;18.80;99.90;;;;;;4853440;29;20045;-75
2023/07/24 00:51:39;;;;;;;1.60;0.90;;;18.70;99.90;;;;;;4867549;29;20370;-75
2023/07/24 00:54:07;;;;;;;2.65;0.80;;;18.80;99.90;;;;;;4881113;29;20408;-76
2023/07/24 00:56:34;;;;;;;2.40;1.15;;;18.70;99.90;;;;;;4855594;29;20036;-75
2023/07/24 00:59:01;;;;;;;1.58;0.70;;;18.70;99.90;;;;;;4863110;29;20033;-75
2023/07/24 01:01:28;;;;;;;1.08;0.60;;;18.60;99.90;;;;;;4851823;29;20036;-76
2023/07/24 01:03:58;;;;;;;1.42;0.60;;;18.60;99.90;;;;;;4856736;29;20040;-76
2023/07/24 01:06:25;;;;;;;1.30;0.70;;;18.70;99.90;;;;;;4887707;29;20403;-76
2023/07/24 01:08:51;;;;;;;2.25;0.85;;;18.70;99.90;;;;;;4883975;29;20036;-75
2023/07/24 01:11:19;;;;;;;1.08;0.60;;;18.70;99.90;;;;;;4871607;29;20029;-76
2023/07/24 01:14:00;;;;;;;1.92;0.70;;;18.70;99.90;;;;;;4857310;29;20047;-76
2023/07/24 01:16:35;;;;;;;1.33;0.85;;;18.70;99.90;;;;;;4863526;29;20047;-76
2023/07/24 01:19:09;;;;;;;1.10;0.57;;;18.70;99.90;;;;;;4881818;29;20028;-76
2023/07/24 01:21:51;;;;;;;1.30;0.57;;;18.70;99.90;;;;;;4854572;29;20686;-77
2023/07/24 01:24:33;;;;;;;0.90;0.60;;;18.70;99.90;;;;;;4877296;29;20037;-77
2023/07/24 01:27:00;;;;;;;0.80;0.50;;;18.70;99.90;;;;;;4881027;29;20041;-76
2023/07/24 01:29:27;;;;;;;1.73;0.70;;;18.70;99.90;;;;;;4879418;29;20029;-77
2023/07/24 01:31:53;;;;;;;1.80;0.90;;;18.70;99.90;;;;;;4880814;29;20036;-77
2023/07/24 01:34:20;;;;;;;1.25;0.63;;;18.70;99.90;;;;;;4885112;29;20412;-77
2023/07/24 01:36:47;;;;;;;1.98;1.10;;;18.60;99.90;;;;;;4847428;29;20048;-77
2023/07/24 01:39:14;;;;;;;2.03;1.25;;;18.70;99.90;;;;;;4882239;29;20057;-77
2023/07/24 01:41:41;;;;;;;2.03;1.20;;;18.70;99.90;;;;;;4878862;29;20040;-77
2023/07/24 01:44:07;;;;;;;2.95;1.20;;;18.70;99.90;;;;;;4879688;29;20044;-77
2023/07/24 01:46:34;;;;;;;1.80;1.40;;;18.60;99.90;;;;;;4866105;29;20055;-77
2023/07/24 01:49:00;;;;;;;2.30;2.10;;;18.60;99.90;;;;;;4869553;29;20039;-77
2023/07/24 01:51:26;;;;;;;1.90;1.52;;;18.60;99.90;;;;;;4848050;29;20044;-77
2023/07/24 01:53:53;;;;;;;2.45;1.38;;;18.50;99.90;;;;;;4849229;29;20044;-79
2023/07/24 01:56:19;;;;;;;1.70;1.27;;;18.60;99.90;;;;;;4862180;29;20039;-77
2023/07/24 01:58:45;;;;;;;1.73;1.20;;;18.60;99.90;;;;;;4867351;29;20039;-77
2023/07/24 02:01:14;;;;;;;1.90;1.15;;;18.60;99.90;;;;;;4866564;29;20388;-77
2023/07/24 02:03:40;;;;;;;1.55;1.13;;;18.50;99.90;;;;;;4879025;29;20032;-78
2023/07/24 02:06:07;;;;;;;1.80;1.25;;;18.50;99.90;;;;;;4863794;29;20044;-76
2023/07/24 02:08:33;;;;;;;1.85;1.25;;;18.60;99.90;;;;;;4864976;29;20048;-77
2023/07/24 02:10:59;;;;;;;1.95;1.30;;;18.60;99.90;;;;;;4878939;29;20044;-78
2023/07/24 02:13:26;;;;;;;1.35;1.05;;;18.60;99.90;;;;;;4867003;29;20075;-78
2023/07/24 02:15:53;;;;;;;2.50;1.67;;;18.60;99.90;;;;;;4866288;29;20036;-77
2023/07/24 02:18:19;;;;;;;1.70;1.30;;;18.50;99.90;;;;;;4881836;29;20522;-76
2023/07/24 02:20:50;;;;;;;2.08;1.20;;;18.50;99.90;;;;;;4880312;29;20028;-77
2023/07/24 02:23:17;;;;;;;2.30;1.30;;;18.50;99.90;;;;;;4881272;29;20043;-76
2023/07/24 02:25:44;;;;;;;2.17;1.20;;;18.50;99.90;;;;;;4860127;29;20049;-77
2023/07/24 02:28:10;;;;;;;1.58;1.00;;;18.50;99.90;;;;;;4862340;29;20063;-77
2023/07/24 02:30:39;;;;;;;1.80;1.20;;;18.50;99.90;;;;;;4862021;29;20047;-77
2023/07/24 02:33:05;;;;;;;2.10;1.63;;;18.60;99.90;;;;;;4881339;29;20409;-78
2023/07/24 02:35:37;;;;;;;3.35;1.83;;;18.60;99.90;;;;;;4863211;29;22519;-76
2023/07/24 02:38:04;;;;;;;2.28;1.30;;;18.60;99.90;;;;;;4853029;29;20036;-77
2023/07/24 02:40:31;;;;;;;1.67;1.10;;;18.60;99.90;;;;;;4882864;29;20484;-77
2023/07/24 02:42:58;;;;;;;1.38;0.90;;;18.60;99.90;;;;;;4877560;29;20667;-77
2023/07/24 02:45:24;;;;;;;2.88;2.10;;;18.60;99.90;;;;;;4866551;29;20498;-76
2023/07/24 02:47:50;;;;;;;2.53;1.73;;;18.60;99.90;;;;;;4848231;29;20051;-77
2023/07/24 02:50:17;;;;;;;3.15;1.90;;;18.60;99.90;;;;;;4863940;29;20052;-77
2023/07/24 02:52:43;;;;;;;2.13;1.13;;;18.60;99.90;;;;;;4845792;29;20047;-77
2023/07/24 02:55:09;;;;;;;1.83;1.50;;;18.60;99.90;;;;;;4865412;29;20042;-77
2023/07/24 02:57:36;;;;;;;2.03;1.55;;;18.60;99.90;;;;;;4862748;29;20031;-77
2023/07/24 03:00:02;;;;;;;2.55;1.63;;;18.60;99.90;;;;;;4865600;29;20044;-76
2023/07/24 03:02:31;;;;;;;2.35;1.50;;;18.60;99.90;;;;;;4866220;29;20040;-76
2023/07/24 03:04:58;;;;;;;1.70;1.27;;;18.60;99.90;;;;;;4863519;29;21425;-76
2023/07/24 03:07:24;;;;;;;1.85;1.52;;;18.60;99.90;;;;;;4871088;29;20041;-76
2023/07/24 03:09:51;;;;;;;1.95;1.55;;;18.60;99.90;;;;;;4862989;29;20052;-76
2023/07/24 03:12:17;;;;;;;2.85;1.63;;;18.60;99.90;;;;;;4877099;29;20040;-76
2023/07/24 03:14:43;;;;;;;2.08;1.50;;;18.60;99.90;;;;;;4881135;29;20032;-77
2023/07/24 03:17:10;;;;;;;2.85;1.83;;;18.60;99.90;;;;;;4865589;29;20072;-76
2023/07/24 03:19:36;;;;;;;2.40;2.00;;;18.50;99.90;;;;;;4880624;29;20692;-76
2023/07/24 03:22:03;;;;;;;2.10;1.83;;;18.60;99.90;;;;;;4848766;29;20380;-77
2023/07/24 03:24:29;;;;;;;2.30;1.92;;;18.60;99.90;;;;;;4859179;29;20037;-77
2023/07/24 03:26:55;;;;;;;2.30;1.70;;;18.50;99.90;;;;;;4843428;29;20036;-77
2023/07/24 03:29:21;;;;;;;2.70;1.60;;;18.50;99.90;;;;;;4879044;29;20048;-77
2023/07/24 03:31:48;;;;;;;2.97;2.40;;;18.50;99.90;;;;;;4864270;29;20052;-77
2023/07/24 03:34:14;;;;;;;2.95;2.65;;;18.40;99.90;;;;;;4863573;29;20048;-75
2023/07/24 03:36:42;;;;;;;2.65;2.05;;;18.40;99.90;;;;;;4861234;29;20051;-76
2023/07/24 03:39:10;;;;;;;2.60;2.15;;;18.40;99.90;;;;;;4860729;29;20396;-74
2023/07/24 03:41:41;;;;;;;2.00;1.75;;;18.40;99.90;;;;;;4879123;29;20675;-75
2023/07/24 03:44:08;;;;;;;2.80;2.33;;;18.40;99.90;;;;;;4831779;29;20051;-75
2023/07/24 03:46:34;;;;;;;3.13;2.78;;;18.40;99.90;;;;;;4874243;29;20043;-75
2023/07/24 03:49:01;;;;;;;4.60;3.00;;;18.40;99.90;;;;;;4863044;29;20051;-75
2023/07/24 03:51:27;;;;;;;3.20;2.90;;;18.40;99.90;;;;;;4866535;29;20024;-75
2023/07/24 03:53:53;;;;;;;4.63;4.13;;;18.30;99.90;;;;;;4883426;29;20659;-75
2023/07/24 03:56:20;;;;;;;3.30;2.92;;;18.30;99.90;;;;;;4878466;29;20037;-76
2023/07/24 03:58:46;;;;;;;4.63;4.22;;;18.20;99.90;;;;;;4862355;29;20429;-75
2023/07/24 04:01:12;;;;;;;5.03;3.60;;;18.20;99.90;;;;;;4861432;29;20075;-75
2023/07/24 04:03:39;;;;;;;4.05;3.17;;;18.20;99.90;;;;;;4864198;29;20047;-75
2023/07/24 04:06:05;;;;;;;3.13;2.75;;;18.10;99.90;;;;;;4863658;29;20041;-74
2023/07/24 04:08:32;;;;;;;4.28;3.88;;;18.10;99.90;;;;;;4888638;29;20044;-75
2023/07/24 04:10:58;;;;;;;3.78;3.40;;;18.10;99.90;;;;;;4870212;29;20468;-74
2023/07/24 04:13:24;;;;;;;3.35;3.05;;;18.10;99.90;;;;;;4886209;29;20040;-74
2023/07/24 04:15:51;;;;;;;4.00;3.03;;;18.00;99.90;;;;;;4885267;29;20029;-75
2023/07/24 04:18:17;;;;;;;3.70;3.40;;;18.00;99.90;;;;;;4866824;29;20527;-75
2023/07/24 04:20:43;;;;;;;3.85;3.45;;;18.00;99.90;;;;;;4867974;29;20043;-76
2023/07/24 04:23:09;;;;;;;3.45;3.15;;;18.00;99.90;;;;;;4885541;29;20061;-75
2023/07/24 04:25:36;;;;;;;4.40;3.60;;;18.00;99.90;;;;;;4877960;29;20048;-74
2023/07/24 04:28:02;;;;;;;4.00;3.47;;;18.00;99.90;;;;;;4885686;29;20067;-75
2023/07/24 04:30:29;;;;;;;4.85;3.83;;;17.90;99.90;;;;;;4869764;29;20833;-75
2023/07/24 04:32:55;;;;;;;3.78;3.47;;;18.00;99.90;;;;;;4884371;29;20045;-75
2023/07/24 04:35:22;;;;;;;3.85;3.17;;;18.00;99.90;;;;;;4867031;29;20044;-75
2023/07/24 04:37:48;;;;;;;4.03;3.72;;;17.90;99.90;;;;;;4885605;29;20028;-75
2023/07/24 04:40:14;;;;;;;4.60;3.70;;;17.90;99.90;;;;;;4881528;29;20399;-75
2023/07/24 04:42:41;;;;;;;5.30;4.40;;;17.90;99.90;;;;;;4865594;29;20417;-75
2023/07/24 04:45:08;;;;;;;4.75;4.32;;;17.90;99.90;;;;;;4882422;29;20039;-75
2023/07/24 04:47:36;;;;;;;4.38;3.97;;;17.90;99.90;;;;;;4880285;29;20544;-75
2023/07/24 04:50:03;;;;;;;4.72;4.20;;;17.90;99.90;;;;;;4882446;29;20033;-73
2023/07/24 04:52:29;;;;;;;4.22;3.72;;;17.90;99.90;;;;;;4881897;29;20029;-72
2023/07/24 04:54:56;;;;;;;5.15;4.70;;;17.80;99.90;;;;;;4870635;29;20071;-72
2023/07/24 04:57:22;;;;;;;4.65;4.25;;;17.90;99.90;;;;;;4852414;29;20044;-73
2023/07/24 04:59:48;;;;;;;5.53;5.03;;;17.90;99.90;;;;;;4869842;29;20040;-72
2023/07/24 05:02:14;;;;;;;5.32;4.82;;;17.90;99.90;;;;;;4883058;29;20033;-73
2023/07/24 05:04:41;;;;;;;6.63;6.03;;;17.90;99.90;;;;;;4880198;29;20349;-72
2023/07/24 05:07:07;;;;;;;6.63;5.70;;;17.90;99.90;;;;;;4881781;29;20048;-73
2023/07/24 05:09:34;;;;;;;5.60;5.10;;;17.90;99.90;;;;;;4850783;29;20041;-73
2023/07/24 05:12:02;;;;;;;5.13;4.72;;;17.80;99.90;;;;;;4866756;29;20044;-72
2023/07/24 05:14:28;;;;;;;4.97;4.50;;;17.80;99.90;;;;;;4881284;29;20492;-73
2023/07/24 05:16:55;;;;;;;6.40;5.82;;;17.80;99.90;;;;;;4879142;29;20040;-73
2023/07/24 05:19:21;;;;;;;7.15;6.45;;;17.80;99.90;;;;;;4867212;29;20620;-73
2023/07/24 05:21:47;;;;;;;6.10;5.50;;;17.80;99.90;;;;;;4881904;29;20028;-72
2023/07/24 05:24:14;;;;;;;9.77;8.82;;;17.90;99.90;;;;;;4881805;29;20039;-73
2023/07/24 05:26:40;;;;;;;9.15;8.32;;;17.80;99.90;;;;;;4882453;29;20621;-73
2023/07/24 05:29:06;;;;;;;7.55;6.88;;;17.90;99.90;;;;;;4865505;29;20033;-73
2023/07/24 05:31:35;;;;;;;10.68;9.60;;;17.90;99.90;;;;;;4848927;29;20044;-74
2023/07/24 05:34:03;;;;;;;9.43;8.52;;;17.90;99.90;;;;;;4878181;29;20041;-74
2023/07/24 05:36:29;;;;;;;7.53;6.82;;;17.90;99.90;;;;;;4864609;29;20032;-73
2023/07/24 05:38:57;;;;;;;8.10;7.30;;;17.90;99.90;;;;;;4864425;29;20043;-74
2023/07/24 05:41:23;;;;;;;7.53;6.50;;;17.90;99.90;;;;;;4867268;29;20037;-73
2023/07/24 05:43:50;;;;;;;7.30;6.43;;;18.00;99.90;;;;;;4880933;29;20041;-74
2023/07/24 05:46:16;;;;;;;12.02;10.77;;;18.00;99.90;;;;;;4867966;29;20052;-75
2023/07/24 05:48:43;;;;;;;10.15;9.15;;;18.00;99.90;;;;;;4862286;29;20052;-75
2023/07/24 05:51:09;;;;;;;9.27;8.38;;;18.10;99.90;;;;;;4881032;29;20041;-73
2023/07/24 05:53:35;;;;;;;9.38;7.80;;;18.20;99.90;;;;;;4848894;29;20032;-73
2023/07/24 05:56:03;;;;;;;9.15;8.30;;;18.20;99.90;;;;;;4881569;29;20048;-75
2023/07/24 05:58:29;;;;;;;13.18;11.65;;;18.30;99.90;;;;;;4868062;29;20040;-73
2023/07/24 06:00:56;;;;;;;11.23;10.13;;;18.40;99.90;;;;;;4878800;29;20060;-72
2023/07/24 06:03:23;;;;;;;12.13;10.93;;;18.40;99.90;;;;;;4880876;29;20626;-73
2023/07/24 06:05:54;;;;;;;11.52;10.43;;;18.30;99.90;;;;;;4850304;29;20041;-73
2023/07/24 06:08:21;;;;;;;14.98;13.48;;;18.40;99.90;;;;;;4867554;29;20048;-73
2023/07/24 06:10:49;;;;;;;13.57;11.20;;;18.30;99.90;;;;;;4881506;29;20024;-72
2023/07/24 06:13:20;;;;;;;13.93;12.43;;;18.30;99.90;;;;;;4881683;29;20027;-73
2023/07/24 06:15:50;;;;;;;13.27;11.18;;;18.40;99.90;;;;;;4862910;29;20033;-73
2023/07/24 06:18:16;;;;;;;13.35;10.43;;;18.30;99.90;;;;;;4877323;29;20769;-73
2023/07/24 06:20:43;;;;;;;15.15;13.18;;;18.30;99.90;;;;;;4867170;29;20044;-72
2023/07/24 06:23:09;;;;;;;12.05;10.02;;;18.30;99.90;;;;;;4865771;29;20044;-73
2023/07/24 06:25:35;;;;;;;11.27;9.93;;;18.30;99.90;;;;;;4866817;29;20439;-73
2023/07/24 06:28:05;;;;;;;11.73;10.55;;;18.40;99.90;;;;;;4865512;29;20041;-73
2023/07/24 06:30:31;;;;;;;11.95;10.48;;;18.50;99.90;;;;;;4864114;29;20041;-73
2023/07/24 06:32:57;;;;;;;11.55;10.30;;;18.50;99.90;;;;;;4862851;29;20059;-73
2023/07/24 06:35:24;;;;;;;11.13;9.10;;;18.50;99.90;;;;;;4849559;29;20427;-73
2023/07/24 06:37:50;;;;;;;10.45;9.25;;;18.50;99.90;;;;;;4847680;29;20044;-73
2023/07/24 06:40:16;;;;;;;10.60;9.18;;;18.60;99.90;;;;;;4865885;29;20043;-73
2023/07/24 06:42:43;;;;;;;10.85;9.65;;;18.60;99.90;;;;;;4851019;29;20070;-73
2023/07/24 06:45:10;;;;;;;12.13;9.75;;;18.70;99.90;;;;;;4866515;29;20729;-74
2023/07/24 06:47:36;;;;;;;12.40;10.90;;;18.80;99.90;;;;;;4879426;29;20419;-73
2023/07/24 06:50:04;;;;;;;13.65;10.90;;;19.00;99.90;;;;;;4870508;29;20515;-74
2023/07/24 06:52:32;;;;;;;11.40;9.93;;;19.30;99.90;;;;;;4887667;29;20059;-74
2023/07/24 06:54:59;;;;;;;12.50;11.18;;;19.40;99.90;;;;;;4880891;29;20040;-74
2023/07/24 06:57:25;;;;;;;11.63;9.80;;;19.40;99.90;;;;;;4881497;29;20469;-74
2023/07/24 06:59:52;;;;;;;11.80;10.68;;;19.30;99.90;;;;;;4861661;29;20056;-74
2023/07/24 07:02:18;;;;;;;11.02;9.82;;;19.20;99.90;;;;;;4882108;29;20041;-74
2023/07/24 07:04:44;;;;;;;11.68;10.48;;;19.10;99.90;;;;;;4887404;29;20044;-74
2023/07/24 07:07:11;;;;;;;12.80;11.20;;;19.00;99.90;;;;;;4882644;29;20040;-75
2023/07/24 07:09:37;;;;;;;10.38;9.38;;;18.90;99.90;;;;;;4880746;29;20044;-74
2023/07/24 07:12:04;;;;;;;11.38;10.27;;;19.00;99.90;;;;;;4875326;29;20392;-73
2023/07/24 07:14:30;;;;;;;15.05;12.55;;;19.00;99.90;;;;;;4881587;29;20044;-73
2023/07/24 07:16:56;;;;;;;13.50;12.25;;;19.20;99.90;;;;;;4880911;29;20041;-73
2023/07/24 07:19:23;;;;;;;12.50;11.27;;;19.30;99.90;;;;;;4879948;29;20037;-74
2023/07/24 07:21:49;;;;;;;14.38;12.82;;;19.50;99.90;;;;;;4867971;29;20028;-73
2023/07/24 07:24:15;;;;;;;10.93;9.82;;;19.70;99.90;;;;;;4881287;29;20043;-74
2023/07/24 07:26:42;;;;;;;12.23;11.02;;;19.90;99.90;;;;;;4883794;29;20047;-74
2023/07/24 07:29:10;;;;;;;13.32;11.93;;;20.00;99.90;;;;;;4864380;29;20044;-73
2023/07/24 07:31:37;;;;;;;14.77;13.38;;;20.20;99.90;;;;;;4847724;29;20044;-74
2023/07/24 07:34:03;;;;;;;14.82;13.23;;;20.20;99.90;;;;;;4879334;29;20044;-73
2023/07/24 07:36:30;;;;;;;14.48;13.07;;;20.40;99.90;;;;;;4882211;29;20104;-73
2023/07/24 07:38:56;;;;;;;14.98;13.40;;;20.50;99.90;;;;;;4881986;29;20032;-74
2023/07/24 07:41:22;;;;;;;15.15;13.60;;;20.60;99.90;;;;;;4850466;29;20036;-73
2023/07/24 07:43:49;;;;;;;13.50;12.10;;;20.70;99.90;;;;;;4850012;29;20071;-74
2023/07/24 07:46:15;;;;;;;13.48;12.13;;;20.70;99.90;;;;;;4853766;29;20053;-73
2023/07/24 07:48:41;;;;;;;14.85;12.23;;;20.70;99.90;;;;;;4884236;29;20044;-73
2023/07/24 07:51:07;;;;;;;11.02;10.02;;;20.80;99.90;;;;;;4853634;29;20041;-73
2023/07/24 07:53:34;;;;;;;13.07;11.68;;;20.70;99.90;;;;;;4867466;29;20037;-73
2023/07/24 07:56:00;;;;;;;12.75;11.52;;;20.70;99.90;;;;;;4885161;29;20044;-73
2023/07/24 07:58:27;;;;;;;13.02;11.82;;;20.70;99.90;;;;;;4884734;29;20047;-73
2023/07/24 08:00:53;;;;;;;15.60;14.00;;;20.80;99.90;;;;;;4882604;29;20033;-73
2023/07/24 08:03:19;;;;;;;15.02;13.45;;;20.90;99.90;;;;;;4885664;29;20036;-74
2023/07/24 08:05:46;;;;;;;12.82;11.57;;;21.00;99.90;;;;;;4884650;29;20056;-74
2023/07/24 08:08:12;;;;;;;11.18;10.10;;;21.10;99.90;;;;;;4882054;29;20045;-73
2023/07/24 08:10:39;;;;;;;11.82;10.65;;;21.10;99.90;;;;;;4885158;29;20056;-72
2023/07/24 08:13:07;;;;;;;13.15;11.60;;;21.00;99.90;;;;;;4884936;29;20033;-73
2023/07/24 08:15:35;;;;;;;14.15;12.68;;;20.60;99.90;;;;;;4862890;29;20047;-73
2023/07/24 08:18:03;;;;;;;11.75;10.50;;;20.20;99.90;;;;;;4882454;29;20029;-73
2023/07/24 08:20:29;;;;;;;12.80;11.60;;;19.80;99.90;;;;;;4854694;29;20032;-73
2023/07/24 08:22:55;;;;;;;11.98;10.82;;;19.50;99.90;;;;;;4885098;29;20495;-73
2023/07/24 08:25:21;;;;;;;16.35;14.38;;;19.20;99.90;;;;;;4887485;29;20033;-73
2023/07/24 08:27:48;;;;;;;13.18;11.90;;;19.20;99.90;;;;;;4850028;29;20526;-73
2023/07/24 08:30:14;;;;;;;13.15;11.77;;;19.20;99.90;;;;;;4882299;29;20040;-73
2023/07/24 08:32:41;;;;;;;11.52;10.32;;;19.30;99.90;;;;;;4881064;29;20056;-73
2023/07/24 08:35:07;;;;;;;12.63;11.32;;;19.50;99.90;;;;;;4853769;29;20044;-73
2023/07/24 08:37:33;;;;;;;14.55;13.18;;;19.60;99.90;;;;;;4867793;29;20037;-73
2023/07/24 08:39:59;;;;;;;13.98;12.70;;;19.80;99.90;;;;;;4883979;29;20049;-73
2023/07/24 08:42:27;;;;;;;14.35;12.40;;;20.10;99.90;;;;;;4870358;29;20040;-74
2023/07/24 08:44:55;;;;;;;15.07;12.38;;;20.40;99.90;;;;;;4870211;29;20044;-73
2023/07/24 08:47:22;;;;;;;12.55;11.43;;;20.50;99.90;;;;;;4882384;29;20047;-73
2023/07/24 08:49:50;;;;;;;13.85;12.45;;;20.50;99.90;;;;;;4880892;29;20373;-73
2023/07/24 08:52:16;;;;;;;12.38;11.18;;;20.60;99.90;;;;;;4866548;29;20480;-73
2023/07/24 08:54:44;;;;;;;12.93;11.63;;;20.60;99.90;;;;;;4884181;29;20029;-73
2023/07/24 08:57:12;;;;;;;12.10;11.00;;;20.60;99.90;;;;;;4884909;29;20040;-73
2023/07/24 08:59:38;;;;;;;10.10;9.13;;;20.60;99.90;;;;;;4882849;29;20048;-73
2023/07/24 09:02:05;;;;;;;10.07;9.00;;;20.70;99.90;;;;;;4887665;29;20037;-73
2023/07/24 09:04:32;;;;;;;10.77;9.75;;;20.80;99.90;;;;;;4882591;29;20495;-72
2023/07/24 09:06:58;;;;;;;9.70;8.90;;;20.90;99.90;;;;;;4853363;29;20036;-73
2023/07/24 09:09:29;;;;;;;9.05;8.30;;;21.10;99.90;;;;;;4852484;29;20627;-73
2023/07/24 09:11:58;;;;;;;8.47;7.60;;;21.40;99.90;;;;;;4868242;29;20040;-73
2023/07/24 09:14:30;;;;;;;8.52;7.82;;;21.40;99.90;;;;;;4866611;29;20036;-73
2023/07/24 09:17:11;;;;;;;9.07;8.18;;;21.40;99.90;;;;;;4865045;29;20067;-72
2023/07/24 09:19:38;;;;;;;7.97;7.18;;;21.50;99.90;;;;;;4883918;29;20033;-73
2023/07/24 09:22:11;;;;;;;7.90;6.93;;;21.60;99.90;;;;;;4884734;29;20039;-73
2023/07/24 09:24:37;;;;;;;7.53;6.65;;;21.60;99.90;;;;;;4884162;29;20052;-73
2023/07/24 09:27:06;;;;;;;6.93;6.32;;;21.80;99.90;;;;;;4886971;29;20032;-74
2023/07/24 09:29:33;;;;;;;8.45;6.88;;;22.00;99.90;;;;;;4867918;29;20040;-73
2023/07/24 09:32:00;;;;;;;7.38;6.70;;;22.30;99.90;;;;;;4887842;29;20404;-73
2023/07/24 09:34:26;;;;;;;7.15;6.45;;;22.60;99.90;;;;;;4851890;29;20496;-73
2023/07/24 09:36:53;;;;;;;6.95;5.88;;;22.70;99.90;;;;;;4864115;29;20115;-73
2023/07/24 09:39:26;;;;;;;5.35;4.95;;;22.90;99.90;;;;;;4857106;29;20047;-73
2023/07/24 09:41:54;;;;;;;5.25;4.57;;;23.10;99.90;;;;;;4870823;29;20063;-74
2023/07/24 09:44:21;;;;;;;6.03;5.53;;;23.30;99.90;;;;;;4881846;29;20498;-75
2023/07/24 09:46:47;;;;;;;7.35;5.32;;;23.30;99.90;;;;;;4867654;29;20059;-73
2023/07/24 09:49:14;;;;;;;7.28;6.57;;;23.50;99.90;;;;;;4883747;29;20044;-75
2023/07/24 09:51:45;;;;;;;6.65;5.65;;;23.70;99.90;;;;;;4855995;29;20077;-75
2023/07/24 09:54:32;;;;;;;6.90;6.20;;;23.80;99.90;;;;;;4889150;29;20029;-74
2023/07/24 09:56:59;;;;;;;5.38;4.88;;;23.60;99.90;;;;;;4883137;29;20045;-75
2023/07/24 09:59:27;;;;;;;4.15;3.75;;;23.30;99.90;;;;;;4881043;29;20029;-75
2023/07/24 10:01:54;;;;;;;4.90;4.45;;;23.10;99.90;;;;;;4881900;29;20043;-75
2023/07/24 10:04:21;;;;;;;4.30;3.90;;;23.00;99.90;;;;;;4867262;29;20037;-75
2023/07/24 10:06:48;;;;;;;5.82;4.80;;;23.00;99.90;;;;;;4884812;29;20512;-75
2023/07/24 10:09:16;;;;;;;4.75;4.05;;;23.10;99.90;;;;;;4886292;29;20036;-75
2023/07/24 10:11:42;;;;;;;4.90;3.53;;;23.10;99.90;;;;;;4839947;29;20126;-75
2023/07/24 10:14:10;;;;;;;4.53;3.97;;;23.10;99.90;;;;;;4853246;29;20053;-75
2023/07/24 10:16:36;;;;;;;4.75;3.20;;;23.00;99.90;;;;;;4884277;29;20040;-76
2023/07/24 10:19:14;;;;;;;4.28;3.40;;;22.80;99.90;;;;;;4852418;29;20049;-75
2023/07/24 10:21:47;;;;;;;4.85;3.92;;;22.60;99.90;;;;;;4885731;29;20040;-75
2023/07/24 10:24:17;;;;;;;4.78;4.22;;;22.30;99.90;;;;;;4867760;29;20040;-74
2023/07/24 10:26:43;;;;;;;5.95;4.80;;;22.10;99.90;;;;;;4879166;29;20029;-73
2023/07/24 10:29:10;;;;;;;6.45;4.38;;;22.20;99.90;;;;;;4880225;29;20043;-74
2023/07/24 10:31:36;;;;;;;5.60;4.47;;;22.30;99.90;;;;;;4880539;29;20057;-74
2023/07/24 10:34:07;;;;;;;5.15;3.40;;;22.50;99.90;;;;;;4877457;29;20106;-73
2023/07/24 10:36:38;;;;;;;4.18;3.33;;;22.50;99.90;;;;;;4882083;29;20230;-74
2023/07/24 10:39:14;;;;;;;3.47;3.08;;;22.60;99.90;;;;;;4861635;29;20040;-76
2023/07/24 10:41:40;;;;;;;5.72;4.63;;;22.70;99.90;;;;;;4879880;29;20037;-74
2023/07/24 10:44:06;;;;;;;5.60;4.97;;;22.80;99.90;;;;;;4864613;29;20045;-77
2023/07/24 10:46:38;;;;;;;4.88;4.43;;;22.80;99.90;;;;;;4847600;29;20051;-75
2023/07/24 10:49:04;;;;;;;5.05;4.50;;;22.80;99.90;;;;;;4876682;29;20090;-74
2023/07/24 10:51:37;;;;;;;4.90;4.13;;;22.60;99.90;;;;;;4884163;29;20045;-74
2023/07/24 10:54:04;;;;;;;5.32;4.80;;;22.60;99.90;;;;;;4880411;29;21500;-75
2023/07/24 10:56:31;;;;;;;4.20;3.80;;;22.50;99.90;;;;;;4861777;29;20057;-76
2023/07/24 10:59:05;;;;;;;5.32;3.72;;;22.50;99.90;;;;;;4849098;29;20037;-74
2023/07/24 11:01:33;;;;;;;4.60;3.80;;;22.50;99.90;;;;;;4880740;29;20523;-75
2023/07/24 11:03:59;;;;;;;5.72;5.13;;;22.50;99.90;;;;;;4839377;29;20037;-74
2023/07/24 11:06:26;;;;;;;7.90;4.78;;;22.50;99.90;;;;;;4864955;29;20037;-75
2023/07/24 11:08:56;;;;;;;6.80;4.20;;;22.40;99.90;;;;;;4863930;29;20032;-74
2023/07/24 11:11:35;;;;;;;4.10;3.70;;;22.40;99.90;;;;;;4861477;29;20036;-75
2023/07/24 11:14:02;;;;;;;5.22;4.05;;;22.50;99.90;;;;;;4862346;29;20039;-75
2023/07/24 11:16:32;;;;;;;4.88;3.45;;;22.50;99.90;;;;;;4848200;29;20044;-76
2023/07/24 11:18:59;;;;;;;5.43;4.88;;;22.50;99.90;;;;;;4881322;29;20043;-78
2023/07/24 11:21:25;;;;;;;4.18;3.47;;;22.60;99.90;;;;;;4851780;29;20044;-76
2023/07/24 11:23:54;;;;;;;5.38;3.58;;;22.70;99.90;;;;;;4849504;29;20066;-76
2023/07/24 11:26:25;;;;;;;5.50;4.25;;;23.00;99.90;;;;;;4863947;29;20040;-76
2023/07/24 11:28:53;;;;;;;4.03;3.63;;;23.20;99.90;;;;;;4879900;29;20044;-75
2023/07/24 11:31:20;;;;;;;3.97;2.28;;;23.20;99.90;;;;;;4851508;29;20036;-76
2023/07/24 11:33:48;;;;;;;6.65;4.30;;;23.30;99.90;;;;;;4867414;29;20399;-77
2023/07/24 11:36:15;;;;;;;4.18;3.35;;;23.50;99.90;;;;;;4880200;29;20405;-77
2023/07/24 11:38:42;;;;;;;5.97;4.13;;;23.50;99.90;;;;;;4881742;29;20024;-76
2023/07/24 11:41:08;;;;;;;5.40;3.83;;;23.40;99.90;;;;;;4864946;29;20025;-75
2023/07/24 11:43:35;;;;;;;3.85;3.00;;;23.30;99.90;;;;;;4880986;29;20044;-76
2023/07/24 11:46:01;;;;;;;3.95;3.05;;;23.00;99.90;;;;;;4881464;29;20515;-75
2023/07/24 11:48:27;;;;;;;4.90;4.13;;;22.90;99.90;;;;;;4851318;29;20580;-76
2023/07/24 11:50:57;;;;;;;4.10;3.05;;;22.90;99.90;;;;;;4863369;29;20423;-76
2023/07/24 11:53:27;;;;;;;4.65;4.15;;;23.00;99.90;;;;;;4863353;29;20041;-76
2023/07/24 11:55:56;;;;;;;3.38;3.00;;;23.30;99.90;;;;;;4862725;29;20044;-76
2023/07/24 11:58:26;;;;;;;6.78;3.92;;;23.60;99.90;;;;;;4851179;29;20060;-76
2023/07/24 12:00:52;;;;;;;4.85;4.35;;;23.90;99.90;;;;;;4880494;29;20048;-76
2023/07/24 12:03:21;;;;;;;6.32;3.45;;;24.20;99.90;;;;;;4881289;29;20032;-76
2023/07/24 12:05:47;;;;;;;5.43;3.83;;;24.30;99.90;;;;;;4864701;29;20416;-77
2023/07/24 12:08:14;;;;;;;4.68;3.58;;;24.50;99.90;;;;;;4862390;29;20036;-76
2023/07/24 12:10:40;;;;;;;7.60;4.38;;;24.80;99.90;;;;;;4879165;29;20040;-76
2023/07/24 12:13:09;;;;;;;4.95;4.45;;;24.90;99.90;;;;;;4863182;29;20170;-76
2023/07/24 12:15:36;;;;;;;5.00;4.03;;;25.10;99.90;;;;;;4880695;29;20519;-76
2023/07/24 12:18:03;;;;;;;6.50;4.45;;;25.30;99.90;;;;;;4862580;29;20037;-77
2023/07/24 12:20:30;;;;;;;5.82;3.95;;;25.30;99.90;;;;;;4879744;29;20480;-76
2023/07/24 12:22:57;;;;;;;4.07;2.50;;;25.60;99.90;;;;;;4866074;29;20536;-77
2023/07/24 12:25:24;;;;;;;5.05;3.28;;;26.00;99.90;;;;;;4883504;29;20040;-78
2023/07/24 12:27:50;;;;;;;3.97;3.15;;;26.20;99.90;;;;;;4868472;29;20048;-77
2023/07/24 12:30:17;;;;;;;3.15;2.15;;;26.60;99.90;;;;;;4869459;29;20045;-76
2023/07/24 12:32:43;;;;;;;3.15;2.50;;;27.10;99.90;;;;;;4870190;29;20052;-78
2023/07/24 12:35:10;;;;;;;2.63;2.13;;;27.20;99.90;;;;;;4886359;29;20036;-77
2023/07/24 12:37:36;;;;;;;5.43;2.90;;;26.80;99.90;;;;;;4867707;29;20044;-77
2023/07/24 12:40:03;;;;;;;5.25;2.70;;;26.50;99.90;;;;;;4865824;29;20037;-76
2023/07/24 12:42:31;;;;;;;3.70;2.45;;;26.20;99.90;;;;;;4851064;29;20044;-76